sensor_id;sensor_type;location;lat;lon;timestamp;pressure;altitude;pressure_sealevel;temperature;humidity
13867;BME280;7003;46.982;15.248;2022-10-16T00:01:21;97500.00;;;10.22;100.00
13867;BME280;7003;46.982;15.248;2022-10-16T00:03:49;97497.63;;;10.12;100.00
13867;BME280;7003;46.982;15.248;2022-10-16T00:06:19;97495.75;;;10.12;100.00
13867;BME280;7003;46.982;15.248;2022-10-16T00:08:49;97500.88;;;10.00;100.00
13867;BME280;7003;46.982;15.248;2022-10-16T00:11:19;97504.31;;;9.92;100.00
13867;BME280;7003;46.982;15.248;2022-10-16T00:13:48;97499.31;;;9.82;100.00
13867;BME280;7003;46.982;15.248;2022-10-16T00:16:18;97503.84;;;9.81;100.00
13867;BME280;7003;46.982;15.248;2022-10-16T00:18:48;97500.72;;;9.88;100.00
13867;BME280;7003;46.982;15.248;2022-10-16T00:21:17;97502.59;;;9.79;100.00
13867;BME280;7003;46.982;15.248;2022-10-16T00:23:45;97494.28;;;9.72;100.00
13867;BME280;7003;46.982;15.248;2022-10-16T00:26:14;97500.69;;;9.71;100.00
13867;BME280;7003;46.982;15.248;2022-10-16T00:28:46;97505.22;;;9.61;100.00
13867;BME280;7003;46.982;15.248;2022-10-16T00:31:17;97508.53;;;9.67;100.00
13867;BME280;7003;46.982;15.248;2022-10-16T00:33:44;97510.38;;;9.67;100.00
13867;BME280;7003;46.982;15.248;2022-10-16T00:36:13;97513.97;;;9.71;100.00
13867;BME280;7003;46.982;15.248;2022-10-16T00:38:41;97521.00;;;9.67;100.00
13867;BME280;7003;46.982;15.248;2022-10-16T00:41:11;97519.94;;;9.68;100.00
13867;BME280;7003;46.982;15.248;2022-10-16T00:43:43;97519.47;;;9.74;100.00
13867;BME280;7003;46.982;15.248;2022-10-16T00:46:17;97520.22;;;9.66;100.00
13867;BME280;7003;46.982;15.248;2022-10-16T00:48:49;97515.38;;;9.68;100.00
13867;BME280;7003;46.982;15.248;2022-10-16T00:51:22;97517.56;;;9.66;100.00
13867;BME280;7003;46.982;15.248;2022-10-16T00:53:50;97513.50;;;9.69;100.00
13867;BME280;7003;46.982;15.248;2022-10-16T00:56:17;97518.97;;;9.72;100.00
13867;BME280;7003;46.982;15.248;2022-10-16T00:58:47;97525.38;;;9.71;100.00
13867;BME280;7003;46.982;15.248;2022-10-16T01:01:16;97524.47;;;9.67;100.00
13867;BME280;7003;46.982;15.248;2022-10-16T01:03:47;97516.78;;;9.57;100.00
13867;BME280;7003;46.982;15.248;2022-10-16T01:06:24;97518.63;;;9.56;100.00
13867;BME280;7003;46.982;15.248;2022-10-16T01:09:00;97524.88;;;9.60;100.00
13867;BME280;7003;46.982;15.248;2022-10-16T01:11:35;97525.25;;;9.68;100.00
13867;BME280;7003;46.982;15.248;2022-10-16T01:14:11;97524.88;;;9.60;100.00
13867;BME280;7003;46.982;15.248;2022-10-16T01:16:49;97522.22;;;9.52;100.00
13867;BME280;7003;46.982;15.248;2022-10-16T01:19:31;97516.75;;;9.48;100.00
13867;BME280;7003;46.982;15.248;2022-10-16T01:22:03;97513.00;;;9.49;100.00
13867;BME280;7003;46.982;15.248;2022-10-16T01:24:38;97516.75;;;9.48;100.00
13867;BME280;7003;46.982;15.248;2022-10-16T01:27:15;97511.75;;;9.55;100.00
13867;BME280;7003;46.982;15.248;2022-10-16T01:29:52;97508.19;;;9.60;100.00
13867;BME280;7003;46.982;15.248;2022-10-16T01:32:28;97511.47;;;9.65;100.00
13867;BME280;7003;46.982;15.248;2022-10-16T01:35:04;97517.41;;;9.71;100.00
13867;BME280;7003;46.982;15.248;2022-10-16T01:37:39;97512.88;;;9.72;100.00
13867;BME280;7003;46.982;15.248;2022-10-16T01:40:11;97520.06;;;9.62;100.00
13867;BME280;7003;46.982;15.248;2022-10-16T01:42:42;97530.38;;;9.64;100.00
13867;BME280;7003;46.982;15.248;2022-10-16T01:45:15;97523.16;;;9.56;100.00
13867;BME280;7003;46.982;15.248;2022-10-16T01:47:48;97523.16;;;9.56;100.00
13867;BME280;7003;46.982;15.248;2022-10-16T01:50:20;97523.03;;;9.70;100.00
13867;BME280;7003;46.982;15.248;2022-10-16T01:52:52;97524.59;;;9.71;100.00
13867;BME280;7003;46.982;15.248;2022-10-16T01:55:26;97520.25;;;9.75;100.00
13867;BME280;7003;46.982;15.248;2022-10-16T01:57:58;97510.88;;;9.86;100.00
13867;BME280;7003;46.982;15.248;2022-10-16T02:00:27;97519.47;;;9.91;100.00
13867;BME280;7003;46.982;15.248;2022-10-16T02:02:58;97513.53;;;9.94;100.00
13867;BME280;7003;46.982;15.248;2022-10-16T02:05:32;97517.91;;;9.99;100.00
13867;BME280;7003;46.982;15.248;2022-10-16T02:08:01;97517.16;;;9.90;100.00
13867;BME280;7003;46.982;15.248;2022-10-16T02:10:32;97507.91;;;9.87;100.00
13867;BME280;7003;46.982;15.248;2022-10-16T02:13:09;97510.88;;;9.86;100.00
13867;BME280;7003;46.982;15.248;2022-10-16T02:15:39;97509.16;;;10.16;100.00
13867;BME280;7003;46.982;15.248;2022-10-16T02:18:15;97509.63;;;9.92;100.00
13867;BME280;7003;46.982;15.248;2022-10-16T02:20:50;97511.66;;;9.86;100.00
13867;BME280;7003;46.982;15.248;2022-10-16T02:23:24;97519.94;;;9.85;100.00
13867;BME280;7003;46.982;15.248;2022-10-16T02:25:56;97529.97;;;9.88;100.00
13867;BME280;7003;46.982;15.248;2022-10-16T02:28:31;97531.81;;;9.79;100.00
13867;BME280;7003;46.982;15.248;2022-10-16T02:31:03;97536.19;;;9.75;100.00
13867;BME280;7003;46.982;15.248;2022-10-16T02:33:32;97524.88;;;9.60;100.00
13867;BME280;7003;46.982;15.248;2022-10-16T02:36:02;97529.25;;;9.56;100.00
13867;BME280;7003;46.982;15.248;2022-10-16T02:38:32;97528.16;;;9.57;100.00
13867;BME280;7003;46.982;15.248;2022-10-16T02:40:59;97530.97;;;9.61;100.00
13867;BME280;7003;46.982;15.248;2022-10-16T02:43:30;97528.97;;;9.67;100.00
13867;BME280;7003;46.982;15.248;2022-10-16T02:46:01;97529.09;;;9.53;100.00
13867;BME280;7003;46.982;15.248;2022-10-16T02:48:29;97528.59;;;9.42;100.00
13867;BME280;7003;46.982;15.248;2022-10-16T02:50:58;97534.25;;;9.49;100.00
13867;BME280;7003;46.982;15.248;2022-10-16T02:53:26;97536.59;;;9.51;100.00
13867;BME280;7003;46.982;15.248;2022-10-16T02:55:53;97543.78;;;9.50;100.00
13867;BME280;7003;46.982;15.248;2022-10-16T02:58:20;97542.06;;;9.54;100.00
13867;BME280;7003;46.982;15.248;2022-10-16T03:00:50;97543.63;;;9.55;100.00
13867;BME280;7003;46.982;15.248;2022-10-16T03:03:17;97543.66;;;9.24;100.00
13867;BME280;7003;46.982;15.248;2022-10-16T03:05:47;97547.09;;;9.25;100.00
13867;BME280;7003;46.982;15.248;2022-10-16T03:08:16;97559.44;;;9.21;100.00
13867;BME280;7003;46.982;15.248;2022-10-16T03:10:50;97550.72;;;9.29;100.00
13867;BME280;7003;46.982;15.248;2022-10-16T03:13:17;97552.72;;;9.23;100.00
13867;BME280;7003;46.982;15.248;2022-10-16T03:15:46;97546.69;;;9.40;100.00
13867;BME280;7003;46.982;15.248;2022-10-16T03:18:16;97541.94;;;9.59;100.00
13867;BME280;7003;46.982;15.248;2022-10-16T03:20:44;97535.72;;;9.24;100.00
13867;BME280;7003;46.982;15.248;2022-10-16T03:23:11;97538.38;;;9.24;100.00
13867;BME280;7003;46.982;15.248;2022-10-16T03:25:40;97543.16;;;9.14;100.00
13867;BME280;7003;46.982;15.248;2022-10-16T03:28:07;97541.59;;;9.13;100.00
13867;BME280;7003;46.982;15.248;2022-10-16T03:30:34;97541.84;;;9.03;100.00
13867;BME280;7003;46.982;15.248;2022-10-16T03:33:04;97547.91;;;8.95;100.00
13867;BME280;7003;46.982;15.248;2022-10-16T03:35:35;97546.47;;;8.88;100.00
13867;BME280;7003;46.982;15.248;2022-10-16T03:38:05;97548.03;;;8.90;100.00
13867;BME280;7003;46.982;15.248;2022-10-16T03:40:34;97550.38;;;8.91;100.00
13867;BME280;7003;46.982;15.248;2022-10-16T03:43:01;97546.47;;;8.88;100.00
13867;BME280;7003;46.982;15.248;2022-10-16T03:45:28;97549.06;;;8.80;100.00
13867;BME280;7003;46.982;15.248;2022-10-16T03:47:57;97559.78;;;8.97;100.00
13867;BME280;7003;46.982;15.248;2022-10-16T03:50:27;97554.72;;;8.87;100.00
13867;BME280;7003;46.982;15.248;2022-10-16T03:52:55;97560.31;;;8.85;100.00
13867;BME280;7003;46.982;15.248;2022-10-16T03:55:22;97558.97;;;8.66;100.00
13867;BME280;7003;46.982;15.248;2022-10-16T03:57:52;97562.41;;;8.66;100.00
13867;BME280;7003;46.982;15.248;2022-10-16T04:00:19;97568.59;;;8.62;100.00
13867;BME280;7003;46.982;15.248;2022-10-16T04:02:48;97568.34;;;8.72;100.00
13867;BME280;7003;46.982;15.248;2022-10-16T04:05:15;97566.00;;;8.70;100.00
13867;BME280;7003;46.982;15.248;2022-10-16T04:07:42;97575.03;;;8.69;100.00
13867;BME280;7003;46.982;15.248;2022-10-16T04:10:11;97577.59;;;8.74;100.00
13867;BME280;7003;46.982;15.248;2022-10-16T04:12:40;97565.88;;;8.75;100.00
13867;BME280;7003;46.982;15.248;2022-10-16T04:15:08;97564.28;;;8.66;100.00
13867;BME280;7003;46.982;15.248;2022-10-16T04:17:35;97565.06;;;8.66;100.00
13867;BME280;7003;46.982;15.248;2022-10-16T04:20:03;97562.56;;;8.70;100.00
13867;BME280;7003;46.982;15.248;2022-10-16T04:22:30;97562.91;;;8.77;100.00
13867;BME280;7003;46.982;15.248;2022-10-16T04:24:59;97566.66;;;8.76;100.00
13867;BME280;7003;46.982;15.248;2022-10-16T04:27:28;97572.09;;;8.71;100.00
13867;BME280;7003;46.982;15.248;2022-10-16T04:29:57;97568.78;;;8.65;100.00
13867;BME280;7003;46.982;15.248;2022-10-16T04:32:24;97576.63;;;8.70;100.00
13867;BME280;7003;46.982;15.248;2022-10-16T04:34:51;97577.88;;;8.73;100.00
13867;BME280;7003;46.982;15.248;2022-10-16T04:37:23;97578.19;;;8.71;100.00
13867;BME280;7003;46.982;15.248;2022-10-16T04:39:53;97584.06;;;8.68;100.00
13867;BME280;7003;46.982;15.248;2022-10-16T04:42:23;97580.84;;;8.71;100.00
13867;BME280;7003;46.982;15.248;2022-10-16T04:44:54;97589.75;;;8.75;100.00
13867;BME280;7003;46.982;15.248;2022-10-16T04:47:21;97588.50;;;8.73;100.00
13867;BME280;7003;46.982;15.248;2022-10-16T04:49:50;97584.44;;;8.75;100.00
13867;BME280;7003;46.982;15.248;2022-10-16T04:52:17;97584.94;;;8.77;100.00
13867;BME280;7003;46.982;15.248;2022-10-16T04:54:45;97587.56;;;8.77;100.00
13867;BME280;7003;46.982;15.248;2022-10-16T04:57:12;97589.38;;;8.68;100.00
13867;BME280;7003;46.982;15.248;2022-10-16T04:59:42;97594.38;;;8.47;100.00
13867;BME280;7003;46.982;15.248;2022-10-16T05:02:11;97597.41;;;8.55;100.00
13867;BME280;7003;46.982;15.248;2022-10-16T05:04:39;97596.19;;;8.61;100.00
13867;BME280;7003;46.982;15.248;2022-10-16T05:07:06;97601.03;;;8.59;100.00
13867;BME280;7003;46.982;15.248;2022-10-16T05:09:37;97608.50;;;8.57;100.00
13867;BME280;7003;46.982;15.248;2022-10-16T05:12:05;97598.91;;;8.47;100.00
13867;BME280;7003;46.982;15.248;2022-10-16T05:14:33;97602.47;;;8.42;100.00
13867;BME280;7003;46.982;15.248;2022-10-16T05:17:02;97612.66;;;8.49;100.00
13867;BME280;7003;46.982;15.248;2022-10-16T05:19:31;97616.25;;;8.53;100.00
13867;BME280;7003;46.982;15.248;2022-10-16T05:21:59;97625.69;;;8.59;100.00
13867;BME280;7003;46.982;15.248;2022-10-16T05:24:28;97627.78;;;8.71;100.00
13867;BME280;7003;46.982;15.248;2022-10-16T05:26:56;97623.06;;;8.68;100.00
13867;BME280;7003;46.982;15.248;2022-10-16T05:29:30;97624.53;;;8.52;100.00
13867;BME280;7003;46.982;15.248;2022-10-16T05:32:00;97629.13;;;8.46;100.00
13867;BME280;7003;46.982;15.248;2022-10-16T05:34:29;97632.03;;;8.36;100.00
13867;BME280;7003;46.982;15.248;2022-10-16T05:36:59;97634.84;;;8.39;100.00
13867;BME280;7003;46.982;15.248;2022-10-16T05:39:29;97633.66;;;8.45;100.00
13867;BME280;7003;46.982;15.248;2022-10-16T05:42:00;97640.53;;;8.46;100.00
13867;BME280;7003;46.982;15.248;2022-10-16T05:44:29;97640.69;;;8.64;100.00
13867;BME280;7003;46.982;15.248;2022-10-16T05:46:57;97650.28;;;8.73;100.00
13867;BME280;7003;46.982;15.248;2022-10-16T05:49:26;97643.13;;;8.74;100.00
13867;BME280;7003;46.982;15.248;2022-10-16T05:51:55;97641.22;;;9.19;100.00
13867;BME280;7003;46.982;15.248;2022-10-16T05:54:25;97641.00;;;9.38;100.00
13867;BME280;7003;46.982;15.248;2022-10-16T05:56:55;97639.38;;;9.50;100.00
13867;BME280;7003;46.982;15.248;2022-10-16T05:59:24;97646.09;;;9.56;100.00
13867;BME280;7003;46.982;15.248;2022-10-16T06:01:53;97650.38;;;9.66;100.00
13867;BME280;7003;46.982;15.248;2022-10-16T06:04:25;97642.38;;;9.57;100.00
13867;BME280;7003;46.982;15.248;2022-10-16T06:06:54;97646.38;;;9.46;100.00
13867;BME280;7003;46.982;15.248;2022-10-16T06:09:28;97654.38;;;9.24;100.00
13867;BME280;7003;46.982;15.248;2022-10-16T06:11:57;97650.78;;;8.98;100.00
13867;BME280;7003;46.982;15.248;2022-10-16T06:14:26;97666.06;;;9.01;100.00
13867;BME280;7003;46.982;15.248;2022-10-16T06:16:55;97672.47;;;9.22;100.00
13867;BME280;7003;46.982;15.248;2022-10-16T06:19:23;97670.47;;;9.27;100.00
13867;BME280;7003;46.982;15.248;2022-10-16T06:21:52;97674.66;;;8.98;100.00
13867;BME280;7003;46.982;15.248;2022-10-16T06:24:21;97684.66;;;9.01;100.00
13867;BME280;7003;46.982;15.248;2022-10-16T06:26:51;97682.41;;;8.94;100.00
13867;BME280;7003;46.982;15.248;2022-10-16T06:29:21;97692.19;;;9.07;100.00
13867;BME280;7003;46.982;15.248;2022-10-16T06:31:49;97701.13;;;9.34;100.00
13867;BME280;7003;46.982;15.248;2022-10-16T06:34:19;97696.44;;;9.61;100.00
13867;BME280;7003;46.982;15.248;2022-10-16T06:36:49;97699.03;;;9.84;100.00
13867;BME280;7003;46.982;15.248;2022-10-16T06:39:19;97705.47;;;9.91;100.00
13867;BME280;7003;46.982;15.248;2022-10-16T06:41:47;97709.22;;;10.21;100.00
13867;BME280;7003;46.982;15.248;2022-10-16T06:44:17;97705.22;;;10.50;100.00
13867;BME280;7003;46.982;15.248;2022-10-16T06:46:45;97710.91;;;10.74;100.00
13867;BME280;7003;46.982;15.248;2022-10-16T06:49:14;97711.69;;;10.83;100.00
13867;BME280;7003;46.982;15.248;2022-10-16T06:51:47;97713.72;;;11.03;100.00
13867;BME280;7003;46.982;15.248;2022-10-16T06:54:16;97716.53;;;11.33;100.00
13867;BME280;7003;46.982;15.248;2022-10-16T06:56:45;97716.81;;;11.40;100.00
13867;BME280;7003;46.982;15.248;2022-10-16T06:59:14;97719.28;;;11.62;100.00
13867;BME280;7003;46.982;15.248;2022-10-16T07:01:44;97718.19;;;11.80;100.00
13867;BME280;7003;46.982;15.248;2022-10-16T07:04:12;97717.28;;;12.14;100.00
13867;BME280;7003;46.982;15.248;2022-10-16T07:06:39;97723.56;;;12.39;100.00
13867;BME280;7003;46.982;15.248;2022-10-16T07:09:09;97721.22;;;12.67;100.00
13867;BME280;7003;46.982;15.248;2022-10-16T07:11:39;97722.63;;;12.64;100.00
13867;BME280;7003;46.982;15.248;2022-10-16T07:14:15;97727.44;;;12.50;100.00
13867;BME280;7003;46.982;15.248;2022-10-16T07:16:45;97717.31;;;12.64;100.00
13867;BME280;7003;46.982;15.248;2022-10-16T07:19:15;97724.47;;;12.72;100.00
13867;BME280;7003;46.982;15.248;2022-10-16T07:21:46;97729.50;;;12.95;100.00
13867;BME280;7003;46.982;15.248;2022-10-16T07:24:16;97735.94;;;12.94;100.00
13867;BME280;7003;46.982;15.248;2022-10-16T07:26:46;97731.25;;;12.91;100.00
13867;BME280;7003;46.982;15.248;2022-10-16T07:29:18;97734.13;;;13.27;100.00
13867;BME280;7003;46.982;15.248;2022-10-16T07:31:49;97734.25;;;13.52;100.00
13867;BME280;7003;46.982;15.248;2022-10-16T07:34:18;97732.50;;;13.68;100.00
13867;BME280;7003;46.982;15.248;2022-10-16T07:36:54;97727.09;;;13.88;100.00
13867;BME280;7003;46.982;15.248;2022-10-16T07:39:25;97724.53;;;14.04;100.00
13867;BME280;7003;46.982;15.248;2022-10-16T07:41:53;97722.09;;;14.36;100.00
13867;BME280;7003;46.982;15.248;2022-10-16T07:44:21;97721.91;;;14.41;100.00
13867;BME280;7003;46.982;15.248;2022-10-16T07:46:55;97714.66;;;14.53;100.00
13867;BME280;7003;46.982;15.248;2022-10-16T07:49:24;97723.66;;;14.73;100.00
13867;BME280;7003;46.982;15.248;2022-10-16T07:51:52;97725.09;;;14.83;100.00
13867;BME280;7003;46.982;15.248;2022-10-16T07:54:20;97724.72;;;14.96;100.00
13867;BME280;7003;46.982;15.248;2022-10-16T07:56:51;97725.09;;;15.23;100.00
13867;BME280;7003;46.982;15.248;2022-10-16T07:59:19;97731.03;;;15.16;100.00
13867;BME280;7003;46.982;15.248;2022-10-16T08:01:50;97728.81;;;15.46;100.00
13867;BME280;7003;46.982;15.248;2022-10-16T08:04:23;97741.75;;;15.56;100.00
13867;BME280;7003;46.982;15.248;2022-10-16T08:06:53;97733.72;;;15.72;100.00
13867;BME280;7003;46.982;15.248;2022-10-16T08:09:22;97736.69;;;15.83;100.00
13867;BME280;7003;46.982;15.248;2022-10-16T08:11:53;97742.94;;;15.87;100.00
13867;BME280;7003;46.982;15.248;2022-10-16T08:14:21;97747.78;;;15.97;100.00
13867;BME280;7003;46.982;15.248;2022-10-16T08:16:48;97742.84;;;16.14;100.00
13867;BME280;7003;46.982;15.248;2022-10-16T08:19:16;97746.84;;;16.21;100.00
13867;BME280;7003;46.982;15.248;2022-10-16T08:21:48;97752.38;;;16.28;100.00
13867;BME280;7003;46.982;15.248;2022-10-16T08:24:16;97753.16;;;16.28;100.00
13867;BME280;7003;46.982;15.248;2022-10-16T08:26:45;97751.16;;;16.41;100.00
13867;BME280;7003;46.982;15.248;2022-10-16T08:29:15;97755.94;;;16.47;100.00
13867;BME280;7003;46.982;15.248;2022-10-16T08:31:43;97753.22;;;16.79;100.00
13867;BME280;7003;46.982;15.248;2022-10-16T08:34:14;97753.81;;;17.07;100.00
13867;BME280;7003;46.982;15.248;2022-10-16T08:36:42;97754.06;;;17.18;100.00
13867;BME280;7003;46.982;15.248;2022-10-16T08:39:11;97756.31;;;17.35;100.00
13867;BME280;7003;46.982;15.248;2022-10-16T08:42:05;97754.84;;;17.57;100.00
13867;BME280;7003;46.982;15.248;2022-10-16T08:45:06;97750.59;;;17.56;100.00
13867;BME280;7003;46.982;15.248;2022-10-16T08:47:49;97757.09;;;17.74;100.00
13867;BME280;7003;46.982;15.248;2022-10-16T08:50:25;97750.44;;;17.87;100.00
13867;BME280;7003;46.982;15.248;2022-10-16T08:52:55;97750.00;;;17.85;100.00
13867;BME280;7003;46.982;15.248;2022-10-16T08:55:37;97752.78;;;18.12;100.00
13867;BME280;7003;46.982;15.248;2022-10-16T08:58:13;97752.50;;;18.43;100.00
13867;BME280;7003;46.982;15.248;2022-10-16T09:00:46;97759.28;;;18.56;100.00
13867;BME280;7003;46.982;15.248;2022-10-16T09:03:26;97764.00;;;18.63;100.00
13867;BME280;7003;46.982;15.248;2022-10-16T09:06:12;97759.84;;;18.46;100.00
13867;BME280;7003;46.982;15.248;2022-10-16T09:08:58;97764.31;;;18.84;100.00
13867;BME280;7003;46.982;15.248;2022-10-16T09:11:39;97754.88;;;19.27;100.00
13867;BME280;7003;46.982;15.248;2022-10-16T09:14:22;97751.25;;;19.16;100.00
13867;BME280;7003;46.982;15.248;2022-10-16T09:16:56;97765.84;;;19.41;100.00
13867;BME280;7003;46.982;15.248;2022-10-16T09:19:30;97754.19;;;19.67;100.00
13867;BME280;7003;46.982;15.248;2022-10-16T09:22:04;97754.41;;;19.51;100.00
13867;BME280;7003;46.982;15.248;2022-10-16T09:24:38;97755.22;;;19.55;100.00
13867;BME280;7003;46.982;15.248;2022-10-16T09:27:10;97757.66;;;19.64;100.00
13867;BME280;7003;46.982;15.248;2022-10-16T09:29:41;97755.22;;;19.89;100.00
13867;BME280;7003;46.982;15.248;2022-10-16T09:32:13;97750.25;;;19.94;100.00
13867;BME280;7003;46.982;15.248;2022-10-16T09:34:45;97762.50;;;20.29;100.00
13867;BME280;7003;46.982;15.248;2022-10-16T09:37:18;97758.22;;;20.24;100.00
13867;BME280;7003;46.982;15.248;2022-10-16T09:39:48;97765.88;;;20.63;100.00
13867;BME280;7003;46.982;15.248;2022-10-16T09:42:21;97759.19;;;20.43;100.00
13867;BME280;7003;46.982;15.248;2022-10-16T09:44:52;97753.66;;;20.32;100.00
13867;BME280;7003;46.982;15.248;2022-10-16T09:47:23;97760.53;;;20.66;100.00
13867;BME280;7003;46.982;15.248;2022-10-16T09:49:52;97760.13;;;20.68;100.00
13867;BME280;7003;46.982;15.248;2022-10-16T09:52:23;97764.53;;;20.39;100.00
13867;BME280;7003;46.982;15.248;2022-10-16T09:54:52;97763.88;;;20.53;100.00
13867;BME280;7003;46.982;15.248;2022-10-16T09:57:24;97756.47;;;21.01;100.00
13867;BME280;7003;46.982;15.248;2022-10-16T09:59:53;97761.31;;;21.36;100.00
13867;BME280;7003;46.982;15.248;2022-10-16T10:02:29;97757.25;;;21.01;100.00
13867;BME280;7003;46.982;15.248;2022-10-16T10:05:00;97757.03;;;20.66;100.00
13867;BME280;7003;46.982;15.248;2022-10-16T10:07:32;97756.53;;;20.50;100.00
13867;BME280;7003;46.982;15.248;2022-10-16T10:10:02;97757.13;;;20.80;100.00
13867;BME280;7003;46.982;15.248;2022-10-16T10:12:33;97758.53;;;21.22;100.00
13867;BME280;7003;46.982;15.248;2022-10-16T10:15:07;97757.38;;;21.23;100.00
13867;BME280;7003;46.982;15.248;2022-10-16T10:17:45;97749.03;;;21.63;100.00
13867;BME280;7003;46.982;15.248;2022-10-16T10:20:22;97759.19;;;22.02;100.00
13867;BME280;7003;46.982;15.248;2022-10-16T10:22:50;97757.22;;;21.95;100.00
13867;BME280;7003;46.982;15.248;2022-10-16T10:25:40;97757.25;;;22.02;100.00
13867;BME280;7003;46.982;15.248;2022-10-16T10:28:38;97756.13;;;22.21;100.00
13867;BME280;7003;46.982;15.248;2022-10-16T10:31:13;97757.28;;;22.16;100.00
13867;BME280;7003;46.982;15.248;2022-10-16T10:33:47;97749.53;;;22.15;100.00
13867;BME280;7003;46.982;15.248;2022-10-16T10:36:25;97741.75;;;21.88;100.00
13867;BME280;7003;46.982;15.248;2022-10-16T10:38:58;97746.84;;;22.36;100.00
13867;BME280;7003;46.982;15.248;2022-10-16T10:44:35;97739.84;;;22.39;100.00
13867;BME280;7003;46.982;15.248;2022-10-16T10:47:11;97739.84;;;22.78;100.00
13867;BME280;7003;46.982;15.248;2022-10-16T10:49:52;97738.31;;;22.16;100.00
13867;BME280;7003;46.982;15.248;2022-10-16T10:52:41;97740.25;;;22.34;100.00
13867;BME280;7003;46.982;15.248;2022-10-16T10:55:20;97739.88;;;22.42;100.00
13867;BME280;7003;46.982;15.248;2022-10-16T10:58:08;97744.09;;;22.64;100.00
13867;BME280;7003;46.982;15.248;2022-10-16T11:00:49;97734.81;;;22.48;100.00
13867;BME280;7003;46.982;15.248;2022-10-16T11:03:37;97737.50;;;22.69;96.54
13867;BME280;7003;46.982;15.248;2022-10-16T11:06:17;97737.91;;;22.89;100.00
13867;BME280;7003;46.982;15.248;2022-10-16T11:08:51;97732.09;;;22.73;100.00
13867;BME280;7003;46.982;15.248;2022-10-16T11:11:24;97730.94;;;22.74;87.40
13867;BME280;7003;46.982;15.248;2022-10-16T11:13:57;97727.34;;;23.09;87.05
13867;BME280;7003;46.982;15.248;2022-10-16T11:16:34;97731.19;;;23.29;89.86
13867;BME280;7003;46.982;15.248;2022-10-16T11:19:11;97724.91;;;23.53;89.59
13867;BME280;7003;46.982;15.248;2022-10-16T11:21:46;97729.56;;;23.46;89.94
13867;BME280;7003;46.982;15.248;2022-10-16T11:24:21;97718.50;;;23.85;84.80
13867;BME280;7003;46.982;15.248;2022-10-16T11:26:53;97726.09;;;23.34;85.29
13867;BME280;7003;46.982;15.248;2022-10-16T11:29:24;97725.41;;;23.93;85.58
13867;BME280;7003;46.982;15.248;2022-10-16T11:31:59;97720.19;;;23.61;78.67
13867;BME280;7003;46.982;15.248;2022-10-16T11:34:31;97723.31;;;23.56;76.99
13867;BME280;7003;46.982;15.248;2022-10-16T11:37:08;97716.81;;;24.01;84.17
13867;BME280;7003;46.982;15.248;2022-10-16T11:39:40;97717.16;;;23.48;72.30
13867;BME280;7003;46.982;15.248;2022-10-16T11:42:18;97713.47;;;22.92;72.22
13867;BME280;7003;46.982;15.248;2022-10-16T11:44:55;97726.31;;;22.28;77.73
13867;BME280;7003;46.982;15.248;2022-10-16T11:47:33;97730.19;;;22.20;79.06
13867;BME280;7003;46.982;15.248;2022-10-16T11:50:09;97725.91;;;22.61;88.01
13867;BME280;7003;46.982;15.248;2022-10-16T11:52:50;97717.16;;;23.41;83.29
13867;BME280;7003;46.982;15.248;2022-10-16T11:55:26;97713.28;;;23.42;78.14
13867;BME280;7003;46.982;15.248;2022-10-16T11:58:00;97724.22;;;23.21;78.54
13867;BME280;7003;46.982;15.248;2022-10-16T12:00:36;97714.69;;;23.75;80.06
13867;BME280;7003;46.982;15.248;2022-10-16T12:03:18;97704.72;;;24.09;77.15
13867;BME280;7003;46.982;15.248;2022-10-16T12:06:10;97713.41;;;23.90;72.51
13867;BME280;7003;46.982;15.248;2022-10-16T12:08:40;97709.88;;;23.93;76.75
13867;BME280;7003;46.982;15.248;2022-10-16T12:11:31;97707.94;;;23.94;79.88
13867;BME280;7003;46.982;15.248;2022-10-16T12:14:21;97706.22;;;24.17;77.91
13867;BME280;7003;46.982;15.248;2022-10-16T12:17:01;97710.44;;;24.26;70.98
13867;BME280;7003;46.982;15.248;2022-10-16T12:19:35;97706.25;;;24.14;72.51
13867;BME280;7003;46.982;15.248;2022-10-16T12:22:18;97709.81;;;24.00;70.87
13867;BME280;7003;46.982;15.248;2022-10-16T12:24:51;97712.47;;;24.14;69.06
13867;BME280;7003;46.982;15.248;2022-10-16T12:27:24;97710.25;;;23.95;72.78
13867;BME280;7003;46.982;15.248;2022-10-16T12:30:00;97714.34;;;24.25;70.39
13867;BME280;7003;46.982;15.248;2022-10-16T12:32:31;97716.50;;;24.44;70.50
13867;BME280;7003;46.982;15.248;2022-10-16T12:35:16;97720.41;;;24.43;72.59
13867;BME280;7003;46.982;15.248;2022-10-16T12:37:46;97720.06;;;23.82;71.49
13867;BME280;7003;46.982;15.248;2022-10-16T12:40:23;97711.91;;;24.37;70.00
13867;BME280;7003;46.982;15.248;2022-10-16T12:42:52;97713.31;;;24.52;69.85
13867;BME280;7003;46.982;15.248;2022-10-16T12:45:28;97711.88;;;24.78;66.95
13867;BME280;7003;46.982;15.248;2022-10-16T12:47:58;97713.28;;;25.31;65.55
13867;BME280;7003;46.982;15.248;2022-10-16T12:50:34;97715.81;;;25.45;66.17
13867;BME280;7003;46.982;15.248;2022-10-16T12:53:03;97722.72;;;25.23;66.63
13867;BME280;7003;46.982;15.248;2022-10-16T12:55:35;97716.81;;;25.28;69.03
13867;BME280;7003;46.982;15.248;2022-10-16T12:58:31;97722.97;;;25.32;68.01
13867;BME280;7003;46.982;15.248;2022-10-16T13:01:12;97723.81;;;25.56;65.05
13867;BME280;7003;46.982;15.248;2022-10-16T13:04:29;97729.38;;;25.49;64.70
13867;BME280;7003;46.982;15.248;2022-10-16T13:07:16;97727.19;;;25.71;64.99
13867;BME280;7003;46.982;15.248;2022-10-16T13:09:58;97725.56;;;25.43;65.94
13867;BME280;7003;46.982;15.248;2022-10-16T13:12:46;97731.28;;;24.43;63.25
13867;BME280;7003;46.982;15.248;2022-10-16T13:15:27;97729.22;;;24.06;66.49
13867;BME280;7003;46.982;15.248;2022-10-16T13:18:05;97733.78;;;24.20;70.65
13867;BME280;7003;46.982;15.248;2022-10-16T13:20:55;97732.19;;;24.26;67.61
13867;BME280;7003;46.982;15.248;2022-10-16T13:23:33;97736.22;;;24.96;68.07
13867;BME280;7003;46.982;15.248;2022-10-16T13:26:15;97737.09;;;25.54;67.42
13867;BME280;7003;46.982;15.248;2022-10-16T13:28:48;97738.47;;;25.69;64.87